Time;durP1;ratioP1;P1;durP2;ratioP2;P2;SDS_P1;SDS_P2;PMS_P1;PMS_P2;Temp;Humidity;BMP_temperature;BMP_pressure;BME280_temperature;BME280_humidity;BME280_pressure;Samples;Min_cycle;Max_cycle;Signal;HPM_P1;HPM_P2
2022/08/18 00:00:02;;;;;;;8.23;5.20;;;;;;;25.34;49.44;96667.66;6330932;22;20259;-76
2022/08/18 00:02:30;;;;;;;5.40;4.80;;;;;;;25.26;49.86;96669.50;6330509;22;20158;-75
2022/08/18 00:04:59;;;;;;;5.73;4.80;;;;;;;25.34;49.92;96669.47;6331787;22;20240;-75
2022/08/18 00:07:29;;;;;;;9.73;5.40;;;;;;;25.51;49.05;96679.88;6329546;22;20165;-75
2022/08/18 00:09:57;;;;;;;6.43;4.70;;;;;;;25.53;48.90;96672.59;6331700;22;20220;-75
2022/08/18 00:12:35;;;;;;;5.67;4.93;;;;;;;25.58;49.26;96672.91;6329568;22;20163;-75
2022/08/18 00:15:04;;;;;;;5.73;5.13;;;;;;;25.61;49.10;96671.75;6278103;22;20236;-75
2022/08/18 00:17:33;;;;;;;5.57;4.80;;;;;;;25.65;48.95;96673.06;6331945;22;20224;-75
2022/08/18 00:20:03;;;;;;;5.23;4.73;;;;;;;25.65;49.67;96679.19;6304666;22;20185;-75
2022/08/18 00:22:30;;;;;;;8.17;5.13;;;;;;;25.57;49.17;96668.63;6332912;22;20174;-75
2022/08/18 00:24:57;;;;;;;5.47;4.90;;;;;;;25.61;49.66;96669.94;6331862;22;20224;-76
2022/08/18 00:27:27;;;;;;;5.93;5.17;;;;;;;25.66;49.52;96664.91;6333028;22;20676;-74
2022/08/18 00:29:57;;;;;;;5.40;4.70;;;;;;;25.53;49.40;96682.38;6304584;22;20181;-74
2022/08/18 00:32:34;;;;;;;5.47;4.97;;;;;;;25.52;49.21;96663.00;6305957;22;20173;-76
2022/08/18 00:35:19;;;;;;;5.77;5.10;;;;;;;25.29;50.15;96671.81;6305328;22;20283;-74
2022/08/18 00:37:48;;;;;;;6.70;5.70;;;;;;;24.97;51.35;96675.34;6232275;22;20686;-74
2022/08/18 00:40:21;;;;;;;6.57;5.80;;;;;;;24.65;52.09;96670.88;6205358;23;20169;-76
2022/08/18 00:42:52;;;;;;;5.60;4.93;;;;;;;24.37;53.01;96671.34;6204027;23;20281;-76
2022/08/18 00:45:24;;;;;;;6.57;5.30;;;;;;;24.21;53.40;96667.69;6309616;22;20636;-75
2022/08/18 00:47:54;;;;;;;7.20;4.90;;;;;;;24.14;53.47;96661.41;6206185;23;20217;-76
2022/08/18 00:50:36;;;;;;;6.40;5.20;;;;;;;24.18;53.27;96648.66;6203897;23;20173;-77
2022/08/18 00:53:17;;;;;;;6.27;5.30;;;;;;;24.59;51.69;96663.59;6178835;23;20167;-74
2022/08/18 00:55:48;;;;;;;5.87;5.23;;;;;;;25.11;50.73;96664.06;6205860;23;20163;-75
2022/08/18 00:58:31;;;;;;;6.57;5.07;;;;;;;25.65;49.10;96652.66;6206618;23;20170;-77
2022/08/18 01:01:07;;;;;;;6.57;5.13;;;;;;;25.93;48.75;96662.78;6206151;22;20222;-75
2022/08/18 01:03:38;;;;;;;6.80;5.00;;;;;;;26.20;47.29;96651.72;6204126;23;20353;-75
2022/08/18 01:06:13;;;;;;;7.57;5.13;;;;;;;26.35;47.38;96665.91;6203710;23;20335;-75
2022/08/18 01:08:40;;;;;;;5.60;4.83;;;;;;;26.49;46.81;96659.81;6178040;23;20187;-77
2022/08/18 01:11:09;;;;;;;5.57;4.60;;;;;;;26.64;46.41;96663.34;6178234;23;20620;-76
2022/08/18 01:13:41;;;;;;;7.37;5.53;;;;;;;26.71;46.12;96652.84;6205729;22;20630;-76
2022/08/18 01:21:50;;;;;;;6.67;4.83;;;;;;;26.91;45.85;96670.81;6204148;23;20227;-76
2022/08/18 01:27:17;;;;;;;7.43;5.10;;;;;;;27.25;44.91;96660.47;6157543;23;20167;-74
2022/08/18 01:29:47;;;;;;;7.37;5.40;;;;;;;27.34;44.75;96669.22;6203136;23;20521;-74
2022/08/18 01:32:20;;;;;;;5.90;5.20;;;;;;;27.43;44.62;96670.78;6178162;23;20243;-75
2022/08/18 01:34:50;;;;;;;7.87;4.73;;;;;;;27.41;44.61;96669.34;6152211;23;20222;-75
2022/08/18 01:37:20;;;;;;;8.43;5.03;;;;;;;27.31;44.92;96667.72;6172240;23;20683;-75
2022/08/18 01:39:48;;;;;;;5.50;5.03;;;;;;;27.26;44.97;96658.66;6173239;23;20262;-75
2022/08/18 01:42:37;;;;;;;6.20;5.00;;;;;;;27.17;45.06;96665.06;6173622;23;20534;-76
2022/08/18 01:45:06;;;;;;;5.37;4.60;;;;;;;27.20;44.99;96670.81;6174596;23;20271;-76
2022/08/18 01:47:35;;;;;;;5.37;4.87;;;;;;;27.14;45.52;96666.22;6174795;23;20166;-78
2022/08/18 01:50:16;;;;;;;5.47;4.90;;;;;;;27.13;45.19;96651.31;6174194;23;21019;-76
2022/08/18 01:52:43;;;;;;;5.70;5.10;;;;;;;27.21;45.18;96666.34;6174933;23;20570;-75
2022/08/18 01:55:10;;;;;;;6.80;4.97;;;;;;;27.25;44.71;96668.47;6173672;23;20225;-75
2022/08/18 01:57:43;;;;;;;5.90;5.10;;;;;;;27.27;45.07;96660.28;6174843;23;20234;-75
2022/08/18 02:00:16;;;;;;;7.47;5.00;;;;;;;27.31;44.92;96666.88;6173812;23;20166;-75
2022/08/18 02:02:43;;;;;;;5.40;4.83;;;;;;;27.27;44.83;96661.13;6174467;23;20175;-75
2022/08/18 02:05:17;;;;;;;6.17;5.40;;;;;;;27.31;44.89;96672.22;6172643;23;20202;-75
2022/08/18 02:07:44;;;;;;;6.13;5.20;;;;;;;27.28;45.21;96673.44;6172016;23;20163;-75
2022/08/18 02:10:12;;;;;;;5.33;4.77;;;;;;;27.21;45.21;96672.50;6174637;23;20760;-76
2022/08/18 02:12:42;;;;;;;8.73;4.63;;;;;;;27.18;45.26;96686.13;6173466;23;20171;-75
2022/08/18 02:15:10;;;;;;;5.50;5.00;;;;;;;27.22;45.29;96671.47;6172464;23;20582;-76
2022/08/18 02:17:43;;;;;;;6.07;4.97;;;;;;;27.14;45.45;96665.44;6174532;23;20169;-78
2022/08/18 02:20:14;;;;;;;7.07;5.10;;;;;;;27.21;45.13;96666.34;6174616;23;20167;-78
2022/08/18 02:22:43;;;;;;;6.10;5.20;;;;;;;27.25;44.68;96665.78;6174596;23;20170;-78
2022/08/18 02:25:11;;;;;;;5.07;4.47;;;;;;;27.28;44.86;96673.44;6173512;23;20217;-79
2022/08/18 02:27:38;;;;;;;8.37;5.10;;;;;;;27.08;45.01;96640.38;6174682;23;20217;-78
2022/08/18 02:30:11;;;;;;;6.57;5.10;;;;;;;27.28;44.78;96672.59;6173387;23;20177;-76
2022/08/18 02:32:38;;;;;;;5.13;4.63;;;;;;;27.25;44.85;96673.78;6174601;23;20166;-76
2022/08/18 02:35:07;;;;;;;5.50;5.00;;;;;;;27.18;44.67;96664.84;6171861;23;20171;-77
2022/08/18 02:37:40;;;;;;;11.57;5.20;;;;;;;27.29;44.57;96675.06;6231530;22;20194;-78
2022/08/18 02:40:15;;;;;;;5.53;5.03;;;;;;;27.23;44.83;96667.81;6204761;22;20165;-77
2022/08/18 02:42:44;;;;;;;5.53;5.00;;;;;;;27.10;45.53;96670.25;6203263;23;20166;-77
2022/08/18 02:45:13;;;;;;;4.97;4.47;;;;;;;26.86;45.75;96673.16;6177693;23;20209;-75
2022/08/18 02:47:42;;;;;;;6.93;5.10;;;;;;;26.63;46.65;96674.16;6203713;23;20169;-75
2022/08/18 02:50:13;;;;;;;7.90;5.20;;;;;;;26.67;46.63;96668.28;6177564;22;20227;-76
2022/08/18 02:52:40;;;;;;;7.70;4.97;;;;;;;26.63;46.06;96659.03;6204669;22;20170;-75
2022/08/18 02:55:08;;;;;;;6.07;5.17;;;;;;;26.74;46.95;96671.94;6177239;22;20246;-75
2022/08/18 02:57:47;;;;;;;10.90;5.47;;;;;;;26.74;46.94;96674.59;6205131;22;20166;-78
2022/08/18 03:00:17;;;;;;;8.80;5.70;;;;;;;26.70;47.01;96662.63;6194778;23;20696;-76
2022/08/18 03:02:50;;;;;;;6.93;5.57;;;;;;;26.67;47.38;96668.28;6204600;23;20162;-75
2022/08/18 03:05:18;;;;;;;8.33;6.03;;;;;;;26.60;47.88;96662.06;6176657;22;20758;-75
2022/08/18 03:07:45;;;;;;;11.17;6.30;;;;;;;26.43;48.28;96666.66;6282375;22;20170;-75
2022/08/18 03:10:15;;;;;;;8.53;5.80;;;;;;;26.48;48.04;96663.50;6204176;23;20681;-76
2022/08/18 03:13:00;;;;;;;11.43;5.77;;;;;;;26.03;49.25;96663.44;6202424;23;20254;-77
2022/08/18 03:15:27;;;;;;;7.53;6.00;;;;;;;26.03;49.23;96664.22;6203683;23;20173;-76
2022/08/18 03:17:57;;;;;;;18.30;7.43;;;;;;;25.98;49.51;96671.06;6176810;22;20219;-76
2022/08/18 03:20:25;;;;;;;8.87;6.03;;;;;;;25.93;49.82;96671.59;6179197;22;20185;-76
2022/08/18 03:22:58;;;;;;;7.00;5.83;;;;;;;25.95;50.13;96671.41;6204042;23;20215;-75
2022/08/18 03:25:35;;;;;;;9.27;6.97;;;;;;;25.87;50.76;96671.44;6178989;23;20663;-76
2022/08/18 03:28:03;;;;;;;14.70;6.00;;;;;;;25.88;50.15;96675.78;6204120;23;20508;-76
2022/08/18 03:30:30;;;;;;;13.30;6.20;;;;;;;25.60;50.25;96636.44;6202975;22;20234;-75
2022/08/18 03:32:58;;;;;;;9.53;5.80;;;;;;;25.66;51.54;96675.53;6204292;22;20633;-75
2022/08/18 03:35:26;;;;;;;11.80;6.23;;;;;;;25.74;50.76;96680.78;6203077;23;20612;-77
2022/08/18 03:37:54;;;;;;;12.03;6.23;;;;;;;25.76;50.45;96673.50;6306287;22;20201;-78
2022/08/18 03:40:22;;;;;;;11.23;6.20;;;;;;;25.82;50.35;96662.19;6304008;22;20534;-75
2022/08/18 03:42:50;;;;;;;11.33;6.13;;;;;;;25.77;49.67;96675.16;6330555;22;20174;-76
2022/08/18 03:45:18;;;;;;;8.07;6.23;;;;;;;25.69;50.67;96669.06;6331324;22;20194;-79
2022/08/18 03:47:45;;;;;;;7.07;6.33;;;;;;;25.67;50.54;96679.00;6278179;22;20167;-76
2022/08/18 03:50:18;;;;;;;7.03;5.43;;;;;;;25.65;50.24;96678.34;6331895;22;20159;-78
2022/08/18 03:52:49;;;;;;;7.00;6.27;;;;;;;25.51;50.11;96663.97;6330778;22;20498;-76
2022/08/18 03:55:16;;;;;;;11.17;5.93;;;;;;;25.22;51.93;96671.69;6333032;22;20487;-77
2022/08/18 03:57:44;;;;;;;10.53;5.90;;;;;;;24.96;52.38;96665.75;6333041;22;20633;-77
2022/08/18 04:00:12;;;;;;;7.93;6.00;;;;;;;24.75;52.61;96668.09;6332295;22;20734;-75
2022/08/18 04:02:39;;;;;;;7.10;6.00;;;;;;;24.49;53.32;96675.31;6333268;22;20523;-74
2022/08/18 04:05:06;;;;;;;6.50;5.87;;;;;;;24.53;53.72;96681.94;6304334;22;20202;-76
2022/08/18 04:07:34;;;;;;;6.60;6.00;;;;;;;24.57;53.24;96672.69;6333218;22;20275;-76
2022/08/18 04:10:01;;;;;;;9.77;6.03;;;;;;;24.94;52.81;96678.31;6332585;22;20170;-76
2022/08/18 04:12:30;;;;;;;9.67;6.60;;;;;;;25.13;51.75;96670.03;6305855;22;20815;-76
2022/08/18 04:14:57;;;;;;;12.47;6.30;;;;;;;25.57;50.73;96686.34;6279614;22;20174;-77
2022/08/18 04:17:24;;;;;;;8.43;5.50;;;;;;;25.82;50.33;96691.38;6332553;22;20510;-77
2022/08/18 04:19:53;;;;;;;10.90;6.60;;;;;;;25.93;50.06;96689.31;6333427;22;20166;-76
2022/08/18 04:22:21;;;;;;;7.80;6.10;;;;;;;25.93;50.28;96691.97;6331920;22;20174;-75
2022/08/18 04:24:49;;;;;;;6.97;5.70;;;;;;;25.70;50.77;96695.41;6305579;22;20354;-76
2022/08/18 04:27:20;;;;;;;8.17;5.40;;;;;;;25.81;50.60;96703.00;6332715;22;20171;-76
2022/08/18 04:29:49;;;;;;;7.07;5.40;;;;;;;25.77;51.26;96695.56;6304868;22;20166;-76
2022/08/18 04:32:16;;;;;;;7.23;6.40;;;;;;;25.97;50.33;96702.09;6332918;22;20167;-76
2022/08/18 04:34:44;;;;;;;6.77;5.67;;;;;;;26.04;50.29;96696.91;6332120;22;20170;-76
2022/08/18 04:37:12;;;;;;;9.73;6.00;;;;;;;26.21;49.88;96690.56;6332771;22;20195;-77
2022/08/18 04:39:40;;;;;;;8.00;6.20;;;;;;;26.27;50.00;96701.31;6305066;22;20160;-76
2022/08/18 04:42:08;;;;;;;8.37;5.93;;;;;;;26.24;50.06;96692.84;6175843;22;20506;-77
2022/08/18 04:44:38;;;;;;;6.63;5.63;;;;;;;26.54;49.48;96699.97;6304973;22;20214;-78
2022/08/18 04:47:07;;;;;;;7.57;5.93;;;;;;;26.84;48.41;96695.59;6305444;22;20171;-77
2022/08/18 04:49:38;;;;;;;6.73;6.03;;;;;;;27.21;47.92;96698.25;6333575;22;20226;-76
2022/08/18 04:55:07;;;;;;;9.53;5.87;;;;;;;27.57;46.73;96699.25;6332875;22;20258;-75
2022/08/18 04:57:35;;;;;;;7.70;5.43;;;;;;;27.88;46.67;96709.69;6332030;22;20164;-77
2022/08/18 05:00:05;;;;;;;10.90;6.90;;;;;;;27.97;46.14;96712.09;6305525;22;20190;-77
2022/08/18 05:02:32;;;;;;;8.80;6.03;;;;;;;28.32;46.42;96710.44;6305010;22;20171;-76
2022/08/18 05:05:02;;;;;;;10.87;5.93;;;;;;;28.54;44.91;96717.44;6331405;22;20253;-76
2022/08/18 05:07:32;;;;;;;8.07;6.17;;;;;;;28.72;45.13;96712.56;6332480;22;20516;-75
2022/08/18 05:10:00;;;;;;;11.63;6.83;;;;;;;29.11;44.98;96709.41;6331080;22;20986;-75
2022/08/18 05:12:28;;;;;;;11.80;6.20;;;;;;;29.30;44.49;96715.94;6305288;22;20243;-79
2022/08/18 05:14:57;;;;;;;13.90;7.60;;;;;;;29.47;43.30;96720.78;6332355;22;20179;-76
2022/08/18 05:17:29;;;;;;;8.47;6.37;;;;;;;29.82;42.78;96721.63;6305187;22;20512;-77
2022/08/18 05:20:02;;;;;;;10.97;7.30;;;;;;;29.89;42.04;96713.66;6332446;22;20250;-75
2022/08/18 05:22:37;;;;;;;9.87;6.87;;;;;;;29.98;41.13;96721.31;6305117;22;20216;-75
2022/08/18 05:25:06;;;;;;;6.67;5.80;;;;;;;29.71;41.21;96693.63;6332742;22;20650;-78
2022/08/18 05:27:36;;;;;;;6.17;5.40;;;;;;;29.80;41.64;96718.34;6303851;22;20178;-75
2022/08/18 05:30:06;;;;;;;6.80;5.30;;;;;;;29.88;40.44;96710.19;6305501;22;20167;-75
2022/08/18 05:32:38;;;;;;;7.93;5.20;;;;;;;30.04;40.39;96719.69;6334656;22;20169;-78
2022/08/18 05:35:24;;;;;;;8.57;5.73;;;;;;;30.27;39.41;96714.88;6332613;22;20166;-78
2022/08/18 05:38:18;;;;;;;8.57;6.80;;;;;;;30.42;39.01;96718.22;6304963;22;20209;-76
2022/08/18 05:41:05;;;;;;;10.97;6.30;;;;;;;30.58;38.97;96722.38;6304753;22;20253;-76
2022/08/18 05:43:43;;;;;;;9.30;5.00;;;;;;;30.38;38.91;96723.16;6332224;22;20177;-77
2022/08/18 05:46:26;;;;;;;14.17;5.93;;;;;;;30.41;39.52;96721.94;6333913;22;20161;-76
2022/08/18 05:48:53;;;;;;;7.67;5.93;;;;;;;30.48;39.50;96715.56;6334821;22;20207;-76
2022/08/18 05:51:42;;;;;;;7.97;5.80;;;;;;;30.34;39.67;96713.88;6336940;22;20205;-76
2022/08/18 05:57:02;;;;;;;9.33;6.23;;;;;;;30.70;39.51;96702.03;6332820;22;20163;-77
2022/08/18 05:59:35;;;;;;;8.53;5.73;;;;;;;30.88;39.38;96723.69;6340355;22;20167;-77
2022/08/18 06:02:17;;;;;;;7.70;6.17;;;;;;;30.78;39.03;96725.91;6341857;22;20167;-76
2022/08/18 06:04:50;;;;;;;7.40;6.33;;;;;;;31.01;39.37;96726.41;6334933;22;20205;-75
2022/08/18 06:07:33;;;;;;;7.67;5.37;;;;;;;30.93;39.03;96731.94;6344783;22;20166;-75
2022/08/18 06:10:01;;;;;;;8.37;5.30;;;;;;;30.96;38.78;96727.00;6352292;22;20172;-76
2022/08/18 06:12:50;;;;;;;7.20;5.20;;;;;;;31.02;38.45;96728.03;6351993;22;20477;-76
2022/08/18 06:15:25;;;;;;;8.97;6.07;;;;;;;31.18;38.37;96727.66;6320210;22;20262;-77
2022/08/18 06:18:22;;;;;;;5.77;5.17;;;;;;;31.04;38.65;96740.19;6322875;22;20197;-76
2022/08/18 06:21:02;;;;;;;6.03;4.93;;;;;;;31.13;38.18;96738.97;6325293;22;20159;-78
2022/08/18 06:23:52;;;;;;;10.37;4.73;;;;;;;30.79;38.46;96707.00;6351858;22;20159;-77
2022/08/18 06:26:33;;;;;;;5.77;4.50;;;;;;;31.07;37.59;96736.28;6349932;22;20167;-77
2022/08/18 06:29:31;;;;;;;6.40;4.67;;;;;;;31.13;37.12;96744.31;6321289;22;20159;-72
2022/08/18 06:32:20;;;;;;;5.30;4.47;;;;;;;30.88;37.47;96739.75;6351635;22;20167;-75
2022/08/18 06:34:56;;;;;;;4.93;4.43;;;;;;;30.91;37.68;96739.34;6340552;22;20170;-74
2022/08/18 06:37:30;;;;;;;6.47;4.60;;;;;;;31.12;37.43;96744.50;6265540;22;20216;-76
2022/08/18 06:40:04;;;;;;;7.63;4.83;;;;;;;31.05;37.71;96738.34;6166253;23;20629;-77
2022/08/18 06:42:32;;;;;;;5.37;4.47;;;;;;;31.25;37.62;96741.84;6190609;23;20567;-77
2022/08/18 06:45:11;;;;;;;6.73;4.47;;;;;;;31.18;37.22;96735.69;6215434;23;20232;-76
2022/08/18 06:47:53;;;;;;;8.90;4.90;;;;;;;30.96;36.80;96742.22;6212221;22;20195;-77
2022/08/18 06:50:35;;;;;;;5.43;4.33;;;;;;;30.83;36.76;96731.50;6212291;23;20169;-77
2022/08/18 06:53:09;;;;;;;7.87;4.43;;;;;;;30.98;36.83;96737.50;6214123;23;20169;-78
2022/08/18 06:55:55;;;;;;;5.83;4.67;;;;;;;31.00;36.26;96740.78;6179072;22;20793;-78
2022/08/18 06:58:30;;;;;;;5.93;4.90;;;;;;;30.78;37.12;96723.25;6204549;23;20168;-77
2022/08/18 07:01:04;;;;;;;4.60;4.20;;;;;;;31.03;36.86;96729.69;6179122;23;20199;-74
2022/08/18 07:03:35;;;;;;;6.13;4.40;;;;;;;30.96;36.71;96734.19;6205140;23;20174;-75
2022/08/18 07:06:06;;;;;;;7.73;4.80;;;;;;;30.99;36.40;96736.47;6176987;22;20592;-75
2022/08/18 07:08:35;;;;;;;6.77;4.77;;;;;;;30.85;37.56;96737.50;6153262;23;20180;-75
2022/08/18 07:11:22;;;;;;;5.07;4.57;;;;;;;30.69;37.26;96735.97;6176901;23;20162;-77
2022/08/18 07:13:55;;;;;;;6.20;5.00;;;;;;;30.84;37.24;96728.59;6204014;23;20219;-75
2022/08/18 07:16:41;;;;;;;6.30;4.67;;;;;;;31.08;37.35;96732.56;6204648;23;20166;-75
2022/08/18 07:19:30;;;;;;;5.03;4.33;;;;;;;31.24;36.40;96735.66;6180825;23;20859;-75
2022/08/18 07:22:05;;;;;;;6.93;4.57;;;;;;;31.01;36.75;96734.41;6178526;23;20176;-78
2022/08/18 07:24:41;;;;;;;5.00;4.50;;;;;;;30.78;37.76;96732.09;6177096;23;20280;-75
2022/08/18 07:27:18;;;;;;;6.27;5.30;;;;;;;30.94;37.30;96736.25;6176821;23;20170;-77
2022/08/18 07:30:11;;;;;;;6.67;4.53;;;;;;;30.83;36.73;96734.97;6180523;23;20248;-78
2022/08/18 07:32:53;;;;;;;7.20;4.50;;;;;;;30.90;36.96;96735.03;6205401;23;20246;-75
2022/08/18 07:35:31;;;;;;;11.43;4.87;;;;;;;30.77;37.17;96737.66;6204424;23;20223;-76
2022/08/18 07:38:35;;;;;;;7.20;4.97;;;;;;;30.94;37.27;96733.59;6286619;22;20281;-78
2022/08/18 07:41:41;;;;;;;5.63;5.13;;;;;;;31.34;36.23;96732.59;6281190;22;20175;-78
2022/08/18 07:44:42;;;;;;;8.33;4.63;;;;;;;31.53;35.95;96730.94;6278684;22;20599;-75
2022/08/18 07:47:22;;;;;;;7.57;5.63;;;;;;;31.70;35.48;96734.81;6338285;22;20167;-77
2022/08/18 07:49:57;;;;;;;5.67;4.70;;;;;;;31.72;35.40;96730.06;6307463;22;20177;-77
2022/08/18 07:53:15;;;;;;;7.93;5.33;;;;;;;31.74;35.99;96722.66;6308922;22;20215;-77
2022/08/18 07:55:51;;;;;;;6.00;4.80;;;;;;;31.79;35.88;96729.03;6306794;22;20255;-76
2022/08/18 07:58:33;;;;;;;5.67;4.53;;;;;;;32.05;34.60;96715.59;6332294;22;20175;-77
2022/08/18 08:01:25;;;;;;;5.30;4.07;;;;;;;32.15;34.82;96735.78;6333758;22;20169;-75
2022/08/18 08:03:59;;;;;;;6.70;4.83;;;;;;;31.99;34.80;96734.38;6333635;22;20182;-76
2022/08/18 08:06:32;;;;;;;6.90;4.57;;;;;;;31.76;34.11;96728.63;6331960;22;20387;-76
2022/08/18 08:09:36;;;;;;;5.45;4.63;;;;;;;31.77;34.32;96741.00;6306237;22;20695;-77
2022/08/18 08:12:29;;;;;;;10.00;4.85;;;;;;;31.93;33.64;96730.69;6330936;22;20166;-78
2022/08/18 08:15:26;;;;;;;10.93;5.33;;;;;;;31.93;33.23;96728.00;6332943;22;20159;-76
2022/08/18 08:18:08;;;;;;;8.60;5.70;;;;;;;32.11;33.63;96739.91;6296406;22;20269;-74
2022/08/18 08:20:45;;;;;;;6.47;4.50;;;;;;;31.87;33.64;96725.31;6304704;22;20204;-77
2022/08/18 08:23:28;;;;;;;6.15;4.80;;;;;;;31.77;34.55;96725.75;6332040;22;21000;-77
2022/08/18 08:26:14;;;;;;;7.20;5.40;;;;;;;31.68;34.06;96731.53;6333313;22;20197;-74
2022/08/18 08:29:10;;;;;;;6.78;4.85;;;;;;;31.84;33.94;96717.69;6332596;22;20662;-75
2022/08/18 08:32:09;;;;;;;8.13;5.20;;;;;;;31.74;33.47;96714.63;6310987;22;20155;-77
2022/08/18 08:34:52;;;;;;;11.57;5.28;;;;;;;31.90;33.54;96731.06;6333603;22;20159;-75
2022/08/18 08:37:33;;;;;;;7.87;5.47;;;;;;;32.12;33.55;96712.06;6305097;22;20199;-75
2022/08/18 08:40:11;;;;;;;6.93;5.63;;;;;;;32.33;33.19;96728.69;6282131;22;20611;-77
2022/08/18 08:42:51;;;;;;;6.03;5.43;;;;;;;32.46;32.88;96725.94;6304701;22;20213;-75
2022/08/18 08:45:29;;;;;;;5.72;5.22;;;;;;;32.38;32.63;96728.84;6305565;22;20213;-74
2022/08/18 08:48:22;;;;;;;5.75;4.90;;;;;;;32.45;32.72;96720.78;6306442;22;20155;-76
2022/08/18 08:50:54;;;;;;;9.52;5.72;;;;;;;32.43;32.77;96728.22;6331613;22;20194;-75
2022/08/18 08:53:37;;;;;;;7.60;5.32;;;;;;;32.25;32.72;96723.56;6333075;22;20240;-75
2022/08/18 08:56:13;;;;;;;8.05;5.47;;;;;;;32.55;33.13;96713.94;6307516;22;20601;-77
2022/08/18 08:58:51;;;;;;;8.63;5.00;;;;;;;32.69;31.43;96714.69;6330702;22;20174;-78
2022/08/18 09:01:39;;;;;;;6.72;5.10;;;;;;;32.76;32.32;96731.56;6335005;22;20163;-79
2022/08/18 09:04:53;;;;;;;5.50;4.53;;;;;;;32.63;32.01;96719.06;6278034;22;20167;-78
2022/08/18 09:08:10;;;;;;;6.07;5.18;;;;;;;32.68;31.69;96718.41;6306437;22;20258;-78
2022/08/18 09:11:14;;;;;;;9.55;5.32;;;;;;;32.70;31.48;96722.53;6333223;22;20169;-76
2022/08/18 09:14:03;;;;;;;7.35;5.30;;;;;;;32.62;31.24;96719.28;6332779;22;20546;-77
2022/08/18 09:16:49;;;;;;;6.68;5.13;;;;;;;32.34;31.59;96721.44;6329835;22;20170;-77
2022/08/18 09:19:41;;;;;;;6.38;4.82;;;;;;;32.45;31.59;96724.28;6331678;22;20554;-74
2022/08/18 09:22:34;;;;;;;6.80;4.80;;;;;;;32.28;32.46;96730.34;6305034;22;20679;-74
2022/08/18 09:25:10;;;;;;;7.53;5.60;;;;;;;32.39;31.86;96721.63;6331556;22;20241;-74
2022/08/18 09:27:43;;;;;;;7.90;6.88;;;;;;;32.69;31.56;96709.31;6332055;22;20279;-76
2022/08/18 09:30:45;;;;;;;6.95;4.90;;;;;;;32.94;31.74;96718.22;6332444;22;20602;-77
2022/08/18 09:33:55;;;;;;;10.02;5.13;;;;;;;32.52;31.23;96729.66;6303486;22;20175;-78
2022/08/18 09:36:46;;;;;;;6.60;4.82;;;;;;;32.11;32.33;96740.72;6332294;22;20194;-77
2022/08/18 09:42:43;;;;;;;8.50;5.38;;;;;;;31.98;32.29;96720.13;6331241;22;20164;-76
2022/08/18 09:45:29;;;;;;;6.93;5.22;;;;;;;32.03;32.57;96736.41;6304020;22;20213;-78
2022/08/18 09:48:30;;;;;;;6.32;5.72;;;;;;;31.99;31.92;96711.06;6332258;22;20216;-75
2022/08/18 09:51:17;;;;;;;8.32;5.25;;;;;;;32.01;31.47;96714.38;6302515;22;20179;-74
2022/08/18 09:53:44;;;;;;;7.10;5.25;;;;;;;32.30;32.99;96722.91;6304808;22;20246;-76
2022/08/18 09:56:17;;;;;;;5.65;5.00;;;;;;;32.30;33.22;96723.72;6303611;22;20537;-75
2022/08/18 09:59:00;;;;;;;5.85;4.95;;;;;;;32.19;32.89;96691.44;6331641;22;20510;-72
2022/08/18 10:01:38;;;;;;;5.90;5.28;;;;;;;32.30;32.92;96722.91;6332179;22;20562;-75
2022/08/18 10:04:13;;;;;;;6.90;5.43;;;;;;;32.51;32.48;96719.94;6330561;22;20203;-76
2022/08/18 10:06:43;;;;;;;6.00;5.35;;;;;;;32.64;32.88;96725.25;6332252;22;20195;-74
2022/08/18 10:09:36;;;;;;;5.72;4.95;;;;;;;32.51;32.65;96701.19;6277664;22;20212;-75
2022/08/18 10:12:49;;;;;;;6.95;5.47;;;;;;;32.54;32.64;96700.75;6331335;22;20246;-76
2022/08/18 10:15:29;;;;;;;7.22;4.85;;;;;;;32.48;32.76;96707.00;6205085;22;20171;-76
2022/08/18 10:18:32;;;;;;;8.55;5.47;;;;;;;32.67;32.81;96696.13;6331008;22;20667;-74
2022/08/18 10:21:17;;;;;;;6.00;5.25;;;;;;;32.91;32.19;96704.44;6330176;22;20714;-77
2022/08/18 10:23:55;;;;;;;6.03;5.28;;;;;;;32.84;31.57;96707.16;6304606;22;20226;-74
2022/08/18 10:26:42;;;;;;;6.60;5.70;;;;;;;32.93;32.49;96697.00;6308697;22;20681;-75
2022/08/18 10:29:39;;;;;;;7.70;5.70;;;;;;;33.27;32.30;96696.53;6306088;22;20163;-76
2022/08/18 10:32:24;;;;;;;6.95;5.50;;;;;;;32.91;32.23;96702.59;6304635;22;20179;-76
2022/08/18 10:34:52;;;;;;;5.85;5.25;;;;;;;32.85;32.10;96704.25;6332581;22;20283;-75
2022/08/18 10:37:31;;;;;;;7.78;5.28;;;;;;;33.04;30.92;96675.66;6304676;22;20199;-77
2022/08/18 10:40:12;;;;;;;6.32;4.90;;;;;;;33.49;30.86;96706.66;6336312;22;20187;-76
2022/08/18 10:43:09;;;;;;;6.75;5.45;;;;;;;33.72;30.36;96703.34;6303627;22;20541;-76
2022/08/18 10:45:57;;;;;;;7.18;5.50;;;;;;;33.41;30.69;96688.13;6332353;22;20190;-78
2022/08/18 10:49:01;;;;;;;7.68;5.78;;;;;;;33.27;31.29;96694.66;6331385;22;20229;-78
2022/08/18 10:51:53;;;;;;;6.43;5.32;;;;;;;33.34;31.29;96692.75;6302410;22;20194;-82
2022/08/18 10:55:00;;;;;;;5.60;5.05;;;;;;;33.01;31.23;96697.56;6331862;22;20246;-78
2022/08/18 10:58:06;;;;;;;6.72;5.90;;;;;;;33.25;31.60;96704.81;6304527;22;20248;-78
2022/08/18 11:00:47;;;;;;;6.88;6.05;;;;;;;33.17;31.20;96693.50;6331357;22;20165;-78
2022/08/18 11:03:44;;;;;;;6.70;5.57;;;;;;;33.14;30.83;96697.44;6300099;22;20171;-79
2022/08/18 11:06:42;;;;;;;8.80;6.03;;;;;;;33.56;30.63;96702.06;6331735;22;20249;-78
2022/08/18 11:09:25;;;;;;;8.80;5.15;;;;;;;33.58;31.09;96683.88;6330979;22;20170;-78
2022/08/18 11:12:00;;;;;;;6.93;6.18;;;;;;;33.55;31.61;96686.19;6332009;22;20166;-78
2022/08/18 11:14:41;;;;;;;8.35;6.25;;;;;;;33.92;30.56;96687.84;6304113;22;20249;-78
2022/08/18 11:17:42;;;;;;;7.15;5.85;;;;;;;33.71;30.34;96687.44;6330925;22;20242;-77
2022/08/18 11:20:16;;;;;;;9.25;6.38;;;;;;;33.89;30.88;96680.22;6332449;22;20258;-77
2022/08/18 11:22:59;;;;;;;7.82;6.18;;;;;;;34.18;30.36;96682.16;6330546;22;20246;-78
2022/08/18 11:25:32;;;;;;;7.68;5.95;;;;;;;33.64;30.33;96682.13;6303198;22;20187;-77
2022/08/18 11:28:01;;;;;;;7.75;6.60;;;;;;;33.43;30.05;96691.41;6304787;22;20160;-77
2022/08/18 11:30:35;;;;;;;6.15;5.45;;;;;;;33.07;30.75;96672.53;6302125;22;20170;-77
2022/08/18 11:33:05;;;;;;;6.60;5.97;;;;;;;33.07;31.04;96679.75;6332531;22;20610;-77
2022/08/18 11:35:45;;;;;;;7.22;6.53;;;;;;;33.45;30.32;96673.22;6330627;22;20193;-77
2022/08/18 11:38:14;;;;;;;6.97;6.10;;;;;;;33.85;29.83;96672.81;6181923;22;20217;-77
2022/08/18 11:41:21;;;;;;;7.32;6.63;;;;;;;34.17;28.86;96660.88;6261118;22;20281;-76
2022/08/18 11:44:19;;;;;;;7.35;6.03;;;;;;;34.35;29.09;96666.22;6330478;22;20185;-76
2022/08/18 11:46:48;;;;;;;8.52;6.32;;;;;;;34.46;29.16;96654.66;6333436;22;20649;-77
2022/08/18 11:49:32;;;;;;;6.85;6.13;;;;;;;34.78;28.75;96663.34;6256583;22;20182;-79
2022/08/18 11:52:23;;;;;;;7.80;6.40;;;;;;;34.59;29.11;96651.00;6174156;22;20171;-78
2022/08/18 11:55:04;;;;;;;7.32;6.13;;;;;;;34.85;29.06;96654.09;6332043;22;20163;-77
2022/08/18 11:57:56;;;;;;;8.07;5.82;;;;;;;34.31;29.40;96654.28;6303610;22;20159;-77
2022/08/18 12:00:47;;;;;;;7.03;6.32;;;;;;;34.37;29.57;96651.50;6332605;22;20170;-77
2022/08/18 12:03:25;;;;;;;9.68;5.93;;;;;;;34.53;28.71;96642.00;6331583;22;20583;-77
2022/08/18 12:06:20;;;;;;;7.07;6.40;;;;;;;34.74;27.97;96657.63;6330552;22;20260;-76
2022/08/18 12:09:01;;;;;;;6.72;6.03;;;;;;;34.62;28.04;96643.31;6304892;22;20160;-78
2022/08/18 12:11:37;;;;;;;8.02;6.50;;;;;;;34.77;27.70;96640.97;6304147;22;20649;-77
2022/08/18 12:14:16;;;;;;;9.32;6.75;;;;;;;34.87;27.51;96635.84;6173230;22;20490;-77
2022/08/18 12:17:06;;;;;;;6.25;5.65;;;;;;;34.89;27.06;96632.94;6174709;22;20220;-78
2022/08/18 12:19:34;;;;;;;9.27;5.78;;;;;;;34.56;29.43;96643.41;6332370;22;20160;-77
2022/08/18 12:22:14;;;;;;;6.32;5.72;;;;;;;34.53;27.47;96633.09;6304761;22;20159;-78
2022/08/18 12:24:45;;;;;;;7.38;6.10;;;;;;;34.65;27.28;96640.16;6332805;22;20216;-77
2022/08/18 12:27:19;;;;;;;6.90;6.20;;;;;;;34.74;27.60;96625.31;6331929;22;20252;-78
2022/08/18 12:29:54;;;;;;;8.85;6.60;;;;;;;34.76;27.71;96622.38;6332991;22;20177;-77
2022/08/18 12:32:26;;;;;;;8.55;6.28;;;;;;;34.90;27.36;96618.44;6333773;22;20174;-77
2022/08/18 12:35:15;;;;;;;7.63;6.55;;;;;;;34.75;27.99;96612.66;6175192;22;20225;-77
2022/08/18 12:37:48;;;;;;;8.32;5.63;;;;;;;34.48;28.17;96614.13;6332981;22;20202;-75